メインページ
METAR-TAF:

METAR-TAF

空港 :

ポワンタピートル国際空港

ポワンタピートル, グアドループ

緯度: 16-16N, 経度: 061-31W, 海抜: 11m

現時点の気象観測

当レポートは28分前の23:30(UTC)に作成
東/北東の風 5kt
気温 27°C
湿度 84%
気圧 1018 hPa
視程10km以上
高度2300ftの雲はほとんどない
高度5800ftの千切れ雲あり

METAR: TFFR 162330Z AUTO 07005KT 9999 FEW023 BKN058 27/24 Q1018 NOSIG

時間: 19:58 (23:58 UTC)

予報

当レポートは58分前の23:00(UTC)に作成
予報は17日の 00時(UTC)から 17日の 24時(UTC)まで有効
東/南東の風 8kt
視程10km以上
高度2500ftの雲はほとんどない
高度4000ftの雲は散在している
確率 30% :
17日の 07時(UTC)から 17日の 14時(UTC)まで一時的に
視程: 4500m
高度1800ftの千切れ雲あり, 塔状積雲.
にわか雨

TAF: TFFR 162300Z 1700/1724 11008KT 9999 FEW025 SCT040 PROB30 TEMPO 1707/1714 4500 SHRA BKN018TCU

4,000以上の空港の気象観測と天気予報(METAR報とTAF報)

利用可能な観測所は地図上に黄色い丸と赤い丸で示す。

丸の上にカーソルを重ねると観測所名を参照できる。

次にクリックすると気象観測と天気予報を参照できる。

マップの切り替え:黒色「×」印の緑ボタンをクリックして拡大、「-」印の緑ボタンをクリックして縮小、緑色の三角印をクリックして隣りの地図に切り替え


METAR-TAF: